Weather reports worldwide

Advertisment
Paganella, Italy (16022): temperature & dewpoint: 16.03.2019 18:00:00 - 22.03.2019 18:00:00 (CET)Paganella, Italy (16022): wind speed: 16.03.2019 18:00:00 - 22.03.2019 18:00:00 (CET)Paganella, Italy (16022): wind direction: 16.03.2019 18:00:00 - 22.03.2019 18:00:00 (CET)Paganella, Italy (16022): visibility: 16.03.2019 18:00:00 - 22.03.2019 18:00:00 (CET)Paganella, Italy (16022): sunshine duration: 16.03.2019 18:00:00 - 22.03.2019 18:00:00 (CET)
Date & Time tt [°C] td [°C] ff [km/h] ff [kn] dd vv [km] sd [min]
22.03.2019 18:00:00 6,0 -23,4 5 3 N 75 60
22.03.2019 17:00:00 6,2 -24,4 9 5 NNW 75 60
22.03.2019 16:00:00 6,2 -22,1 8 4 N 75 60
22.03.2019 15:00:00 6,2 -22,1 8 4 N 75 60
22.03.2019 14:00:00 6,0 -22,3 8 4 N 75 60
22.03.2019 13:00:00 6,0 -23,4 5 3 N 75 60
22.03.2019 12:00:00 5,4 -29,4 5 3 N 75 60
22.03.2019 11:00:00 4,8 -28,2 4 2 NNE 75 60
22.03.2019 10:00:00 4,0 -30,0 4 2 NNE 75 60
22.03.2019 09:00:00 3,0 -28,1 9 5 NNE 75 60
22.03.2019 08:00:00 2,2 -27,5 15 8 N 75 54
22.03.2019 07:00:00 1,6 -26,8 13 7 NNE 75 0
22.03.2019 06:00:00 2,0 -25,4 13 7 NNE 70 -
22.03.2019 05:00:00 2,0 -24,5 13 7 NNE 60 -
22.03.2019 04:00:00 1,8 -23,7 9 5 N 50 -
22.03.2019 03:00:00 1,2 -23,4 11 6 NNE 50 -
22.03.2019 02:00:00 1,6 -23,1 13 7 NNE 50 -
22.03.2019 01:00:00 1,8 -21,4 11 6 NNE 50 -
22.03.2019 00:00:00 1,4 -21,0 15 8 N 50 -
21.03.2019 23:00:00 1,9 -23,7 11 6 N 50 -
21.03.2019 22:00:00 2,0 -22,7 13 7 N 60 -
21.03.2019 21:00:00 2,2 -23,4 15 8 N 60 -
21.03.2019 20:00:00 2,4 -24,2 15 8 N 60 -
21.03.2019 19:00:00 2,6 -25,0 13 7 N 60 6
21.03.2019 18:00:00 2,2 -26,3 13 7 NNW 75 60
21.03.2019 17:00:00 2,8 -25,9 11 6 N 75 60
21.03.2019 16:00:00 2,8 -25,9 9 5 N 75 60
21.03.2019 15:00:00 2,4 -26,2 11 6 N 75 60
21.03.2019 14:00:00 2,0 -27,6 13 7 N 75 60
21.03.2019 13:00:00 1,4 -28,1 9 5 N 75 60
21.03.2019 12:00:00 0,8 -30,0 13 7 N 75 60
21.03.2019 11:00:00 0,0 -30,0 9 5 N 75 60
21.03.2019 10:00:00 -0,7 -30,0 11 6 N 75 60
21.03.2019 09:00:00 -1,2 -29,0 9 5 N 75 60
21.03.2019 08:00:00 -2,0 -27,7 13 7 NNW 75 60
21.03.2019 07:00:00 -3,0 -26,0 15 8 NNW 60 18
21.03.2019 06:00:00 -3,1 -24,1 21 11 NNW 60 -
21.03.2019 05:00:00 -3,4 -22,6 13 7 N 60 -
21.03.2019 04:00:00 -3,4 -22,6 15 8 N 60 -
21.03.2019 03:00:00 -3,8 -21,4 15 8 N 60 -
21.03.2019 02:00:00 -4,4 -17,6 13 7 N 60 -
21.03.2019 01:00:00 -4,2 -16,7 15 8 N 60 -
21.03.2019 00:00:00 -5,0 -15,9 11 6 NNE 60 -
20.03.2019 23:00:00 -4,6 -16,8 13 7 N 60 -
20.03.2019 22:00:00 -4,0 -16,2 13 7 N 60 -
20.03.2019 21:00:00 -3,6 -16,5 9 5 N 60 -
20.03.2019 20:00:00 -3,6 -17,6 8 4 N 60 -
20.03.2019 19:00:00 -3,2 -18,3 8 4 N 60 6
20.03.2019 18:00:00 -3,0 -17,8 5 3 N 75 60
20.03.2019 17:00:00 -2,7 -16,4 9 5 NNW 75 60
20.03.2019 16:00:00 -3,0 -17,8 13 7 NNW 75 60
20.03.2019 15:00:00 -3,6 -17,9 8 4 NNW 75 60
20.03.2019 14:00:00 -4,0 -17,9 8 4 NNW 75 60
20.03.2019 13:00:00 -5,4 -19,9 9 5 N 75 60
20.03.2019 12:00:00 -6,0 -19,7 13 7 N 75 60
20.03.2019 11:00:00 -7,7 -19,9 15 8 NNE 75 60
20.03.2019 10:00:00 -7,6 -18,6 16 9 N 75 60
20.03.2019 09:00:00 -8,0 -18,7 22 12 N 75 60
20.03.2019 08:00:00 -9,0 -17,5 18 10 N 75 60
20.03.2019 07:00:00 -9,4 -17,0 26 14 N 75 18
20.03.2019 06:00:00 -9,5 -16,4 26 14 N 75 -
20.03.2019 05:00:00 -9,4 -15,7 24 13 N 60 -
20.03.2019 04:00:00 -9,4 -15,5 26 14 N 60 -
20.03.2019 03:00:00 -9,2 -15,1 22 12 N 60 -
20.03.2019 02:00:00 -9,0 -15,0 21 11 NNE 60 -
20.03.2019 01:00:00 -9,0 -15,0 24 13 NNE 60 -
20.03.2019 00:00:00 -8,8 -14,6 22 12 NNE 60 -
19.03.2019 23:00:00 -8,4 -14,2 21 11 N 60 -
19.03.2019 22:00:00 -8,2 -14,4 24 13 N 60 -
19.03.2019 21:00:00 -7,8 -14,4 18 10 N 70 -
19.03.2019 20:00:00 -7,4 -14,5 21 11 N 70 -
19.03.2019 19:00:00 -6,6 -14,1 13 7 N 70 6
19.03.2019 18:00:00 -5,8 -14,8 16 9 N 70 60
19.03.2019 17:00:00 -5,1 -13,7 13 7 N 70 60
19.03.2019 16:00:00 -5,3 -13,6 13 7 NNE 70 60
19.03.2019 15:00:00 -5,6 -13,0 15 8 NNE 70 60
19.03.2019 14:00:00 -6,4 -12,5 18 10 N 70 60
19.03.2019 13:00:00 -7,0 -12,5 15 8 N 70 60
19.03.2019 12:00:00 -7,8 -12,5 16 9 N 70 60
19.03.2019 11:00:00 -8,2 -12,7 24 13 NNE 70 60
19.03.2019 10:00:00 -9,0 -13,7 28 15 N 70 60
19.03.2019 09:00:00 -9,3 -13,9 28 15 N 80 60
19.03.2019 08:00:00 -9,8 -14,6 24 13 N 70 18
19.03.2019 07:00:00 -10,0 -14,3 29 16 N 70 18
19.03.2019 06:00:00 -10,0 -14,4 34 18 N 50 -
19.03.2019 05:00:00 -10,0 -14,4 34 18 N 50 -
19.03.2019 04:00:00 -10,0 -14,3 34 18 N 50 -
19.03.2019 03:00:00 - - - - - - -
19.03.2019 02:00:00 -10,0 -13,9 34 18 N 50 -
19.03.2019 01:00:00 -10,0 -13,8 34 18 N 50 -
19.03.2019 00:00:00 -9,8 -13,2 31 17 N 40 -
18.03.2019 23:00:00 -9,7 -12,8 34 18 N 40 -
18.03.2019 22:00:00 -9,5 -12,3 29 16 N 40 -
18.03.2019 21:00:00 -9,2 -11,6 28 15 N 40 -
18.03.2019 20:00:00 -9,0 -10,9 28 15 N 50 -
18.03.2019 19:00:00 -8,2 -9,6 28 15 N 40 0
18.03.2019 18:00:00 -6,6 -7,5 18 10 N 70 48
18.03.2019 17:00:00 -6,0 -6,8 15 8 N 70 60
18.03.2019 16:00:00 -6,0 -6,7 15 8 N 75 60
18.03.2019 15:00:00 -6,2 -6,9 22 12 N 75 60
18.03.2019 14:00:00 -6,7 -7,4 31 17 NNE 50 36
18.03.2019 13:00:00 -7,2 -7,9 29 16 N 0,9 0
18.03.2019 12:00:00 -7,4 -8,1 34 18 N 0,1 0
18.03.2019 11:00:00 -8,0 -8,5 37 20 N - 0
18.03.2019 10:00:00 -8,4 -8,9 41 22 N - 0
18.03.2019 09:00:00 -8,8 -9,7 41 22 N - 0
18.03.2019 08:00:00 -9,0 -9,9 42 23 N - 0
18.03.2019 07:00:00 -8,6 -9,5 42 23 N - 0
18.03.2019 06:00:00 -8,2 -9,1 39 21 NNE - -
18.03.2019 05:00:00 -7,3 -8,4 42 23 N - -
18.03.2019 04:00:00 -3,8 -4,9 41 22 N - -
18.03.2019 03:00:00 -1,1 -1,1 37 20 SSW - -
18.03.2019 02:00:00 -1,5 -1,5 37 20 SSW - -
18.03.2019 01:00:00 -1,5 -1,5 46 25 SSW - -
18.03.2019 00:00:00 -1,0 -1,0 41 22 SW - -
17.03.2019 23:00:00 -1,0 -1,0 41 22 SW - -
17.03.2019 22:00:00 -1,0 -1,0 39 21 SW - -
17.03.2019 21:00:00 -1,0 -1,0 37 20 SW - -
17.03.2019 20:00:00 -1,0 -1,0 34 18 SW - -
17.03.2019 19:00:00 -1,4 -1,4 44 24 SW - 0
17.03.2019 18:00:00 -1,0 -1,0 44 24 SW - 0
17.03.2019 17:00:00 -1,0 -1,0 42 23 SW - 0
17.03.2019 16:00:00 -0,6 -0,7 37 20 SW - 0
17.03.2019 15:00:00 -0,4 -0,5 39 21 SW - 0
17.03.2019 14:00:00 -0,4 -0,7 34 18 SW - 0
17.03.2019 13:00:00 -0,2 -1,1 34 18 SW - 0
17.03.2019 12:00:00 -0,6 -1,4 39 21 SSW - 0
17.03.2019 11:00:00 -1,1 -1,1 37 20 S - 0
17.03.2019 10:00:00 -1,2 -1,2 41 22 S - 0
17.03.2019 09:00:00 -1,0 -1,0 34 18 SSW - 0
17.03.2019 08:00:00 -0,6 -4,0 34 18 SSW 1,5 0
17.03.2019 07:00:00 1,4 -6,0 24 13 SW 60 0
17.03.2019 06:00:00 1,2 -5,7 24 13 SW 50 -
17.03.2019 05:00:00 2,0 -7,6 24 13 SW 40 -
17.03.2019 04:00:00 4,3 -11,0 24 13 WSW 40 -
17.03.2019 03:00:00 3,6 -12,4 18 10 WSW 40 -
17.03.2019 02:00:00 3,2 -10,1 21 11 W 40 -
17.03.2019 01:00:00 3,0 -8,4 16 9 WSW 40 -
17.03.2019 00:00:00 3,2 -8,5 15 8 WSW 40 -
16.03.2019 23:00:00 3,8 -8,9 15 8 WSW 40 -
16.03.2019 22:00:00 4,0 -9,0 13 7 WSW 40 -
16.03.2019 21:00:00 4,3 -8,4 11 6 WSW 40 -
16.03.2019 20:00:00 4,6 -8,5 5 3 N 70 -
16.03.2019 19:00:00 5,2 -9,0 5 3 N 50 0
16.03.2019 18:00:00 6,7 -8,1 8 4 SW 70 60

tt = temperature
td = dewpoint
ff = wind speed
dd = wind direction
vv = visibility
sd = sunshine duration

Next stations